Sweeney, South Dakota
Current Conditions -  °F | °C
As of 12:53 AM on Sunday 23 Nov 2014 (Local Time) from KPIR Reporting Station
Overcast Overcast  
Wind Chill: -2°   Ceiling: 8000
Heat Index:   Visibility: 10mi
Dew Point:   Wind: 14mph
Humidity: 82%   Direction: 310°NW
Pressure: 29.44"   Gusts: NA
Location:  43.909°N, 100.128°W
Report Text: KPIR 230653Z AUTO 31012KT 10SM OVC080 03/00 A2944 RMK AO2 SLP977 T00280000
Loading
Personal Weather Stations






























Interactive Weather Map New forecast layout! Learn more

10-Day Weather Forecast

Advertisements
Track Severe Weather on mobile